createdAt,value
2022-09-07T00:00:53.899Z,98382.25
2022-09-07T00:03:22.519Z,98375.53
2022-09-07T00:05:52.666Z,98370.66
2022-09-07T00:08:23.285Z,98380.41
2022-09-07T00:10:57.744Z,98368.09
2022-09-07T00:13:28.305Z,98374.88
2022-09-07T00:15:56.580Z,98375.81
2022-09-07T00:18:25.190Z,98372.84
2022-09-07T00:20:59.691Z,98369.88
2022-09-07T00:23:28.784Z,98360.66
2022-09-07T00:26:02.054Z,98367.50
2022-09-07T00:28:31.538Z,98369.53
2022-09-07T00:30:59.947Z,98362.34
2022-09-07T00:33:28.448Z,98359.00
2022-09-07T00:35:56.586Z,98372.59
2022-09-07T00:38:24.936Z,98368.94
2022-09-07T00:40:53.274Z,98372.13
2022-09-07T00:43:32.941Z,98356.59
2022-09-07T00:46:01.401Z,98370.97
2022-09-07T00:48:33.715Z,98370.00
2022-09-07T00:51:06.268Z,98364.81
2022-09-07T00:53:39.944Z,98363.78
2022-09-07T00:56:08.557Z,98364.78
2022-09-07T00:58:41.639Z,98363.38
2022-09-07T01:01:10.272Z,98364.78
2022-09-07T01:03:43.191Z,98363.38
2022-09-07T01:06:16.805Z,98365.19
2022-09-07T01:08:47.249Z,98364.72
2022-09-07T01:11:15.166Z,98364.06
2022-09-07T01:13:46.970Z,98365.84
2022-09-07T01:16:27.325Z,98352.72
2022-09-07T01:19:10.127Z,98351.31
2022-09-07T01:21:58.227Z,98352.91
2022-09-07T01:24:54.591Z,98354.25
2022-09-07T01:28:04.056Z,98354.78
2022-09-07T01:30:35.922Z,98336.59
2022-09-07T01:33:14.194Z,98346.03
2022-09-07T01:35:48.846Z,98341.22
2022-09-07T01:38:23.481Z,98343.94
2022-09-07T01:40:58.048Z,98345.06
2022-09-07T01:43:38.342Z,98334.19
2022-09-07T01:46:17.561Z,98335.44
2022-09-07T01:48:49.546Z,98338.50
2022-09-07T01:51:20.033Z,98329.56
2022-09-07T01:53:52.681Z,98322.97
2022-09-07T01:56:23.328Z,98327.28
2022-09-07T01:58:57.153Z,98321.66
2022-09-07T02:01:29.550Z,98314.81
2022-09-07T02:04:03.958Z,98309.16
2022-09-07T02:06:39.881Z,98314.25
2022-09-07T02:09:14.186Z,98314.59
2022-09-07T02:11:46.936Z,98303.78
2022-09-07T02:14:23.015Z,98309.72
2022-09-07T02:16:58.077Z,98305.97
2022-09-07T02:19:29.836Z,98306.50
2022-09-07T02:22:01.698Z,98310.56
2022-09-07T02:24:35.259Z,98303.53
2022-09-07T02:27:05.845Z,98309.88
2022-09-07T02:29:35.494Z,98306.69
2022-09-07T02:32:04.039Z,98314.84
2022-09-07T02:34:32.565Z,98302.84
2022-09-07T02:37:03.922Z,98307.63
2022-09-07T02:39:32.232Z,98295.66
2022-09-07T02:42:00.237Z,98295.34
2022-09-07T02:44:34.624Z,98302.06
2022-09-07T02:47:16.897Z,98301.94
2022-09-07T02:50:01.246Z,98306.69
2022-09-07T02:52:40.957Z,98305.56
2022-09-07T02:55:16.881Z,98297.88
2022-09-07T02:57:53.965Z,98300.59
2022-09-07T03:00:26.033Z,98294.69
2022-09-07T03:03:07.605Z,98304.19
2022-09-07T03:05:43.446Z,98305.56
2022-09-07T03:08:15.049Z,98300.53
2022-09-07T03:10:44.681Z,98296.69
2022-09-07T03:13:21.551Z,98282.06
2022-09-07T03:15:54.963Z,98298.72
2022-09-07T03:18:25.883Z,98307.09
2022-09-07T03:20:54.536Z,98308.28
2022-09-07T03:23:22.719Z,98306.34
2022-09-07T03:25:51.093Z,98309.56
2022-09-07T03:28:19.272Z,98303.63
2022-09-07T03:30:48.001Z,98303.56
2022-09-07T03:33:16.980Z,98284.06
2022-09-07T03:35:47.278Z,98298.31
2022-09-07T03:38:15.188Z,98299.28
2022-09-07T03:40:43.022Z,98298.84
2022-09-07T03:43:11.062Z,98299.22
2022-09-07T03:45:38.826Z,98293.63
2022-09-07T03:48:06.813Z,98295.78
2022-09-07T03:50:34.920Z,98300.72
2022-09-07T03:53:04.073Z,98300.25
2022-09-07T03:55:31.844Z,98301.22
2022-09-07T03:57:59.876Z,98306.22
2022-09-07T04:00:27.662Z,98309.13
2022-09-07T04:02:55.542Z,98309.31
2022-09-07T04:05:24.004Z,98304.34
2022-09-07T04:07:52.494Z,98308.16
2022-09-07T04:10:21.775Z,98316.50
2022-09-07T04:12:50.533Z,98321.94
2022-09-07T04:15:18.320Z,98317.81
2022-09-07T04:17:46.097Z,98316.84
2022-09-07T04:20:14.253Z,98320.53
2022-09-07T04:22:42.061Z,98334.31
2022-09-07T04:25:10.224Z,98330.31
2022-09-07T04:27:39.788Z,98333.66
2022-09-07T04:30:08.676Z,98330.28
2022-09-07T04:32:36.436Z,98322.00
2022-09-07T04:35:04.637Z,98328.53
2022-09-07T04:37:32.400Z,98326.31
2022-09-07T04:40:00.250Z,98328.38
2022-09-07T04:42:28.349Z,98330.44
2022-09-07T04:44:57.829Z,98326.75
2022-09-07T04:47:26.138Z,98325.66
2022-09-07T04:49:54.229Z,98321.03
2022-09-07T04:52:22.186Z,98316.31
2022-09-07T04:54:50.600Z,98306.59
2022-09-07T04:57:21.633Z,98303.03
2022-09-07T04:59:51.911Z,98293.47
2022-09-07T05:02:22.130Z,98314.47
2022-09-07T05:04:53.357Z,98310.25
2022-09-07T05:07:21.514Z,98311.13
2022-09-07T05:09:52.819Z,98310.41
2022-09-07T05:12:20.604Z,98318.41
2022-09-07T05:14:49.104Z,98318.41
2022-09-07T05:17:17.105Z,98327.00
2022-09-07T05:19:46.737Z,98335.78
2022-09-07T05:22:15.313Z,98320.44
2022-09-07T05:24:43.054Z,98319.59
2022-09-07T05:27:10.909Z,98321.03
2022-09-07T05:32:27.043Z,98316.78
2022-09-07T05:34:57.330Z,98316.13
2022-09-07T05:37:25.130Z,98307.28
2022-09-07T05:39:56.272Z,98315.03
2022-09-07T05:42:24.358Z,98315.63
2022-09-07T05:44:53.094Z,98325.50
2022-09-07T05:47:20.857Z,98325.78
2022-09-07T05:49:49.829Z,98330.78
2022-09-07T05:52:20.505Z,98331.38
2022-09-07T05:54:49.047Z,98319.47
2022-09-07T05:57:17.276Z,98319.72
2022-09-07T06:03:50.862Z,98322.50
2022-09-07T06:06:19.856Z,98327.03
2022-09-07T06:08:50.341Z,98326.38
2022-09-07T06:11:20.090Z,98323.66
2022-09-07T06:13:48.873Z,98330.59
2022-09-07T06:16:18.375Z,98337.28
2022-09-07T06:18:48.018Z,98325.25
2022-09-07T06:21:17.939Z,98321.59
2022-09-07T06:23:46.790Z,98321.59
2022-09-07T06:26:17.316Z,98327.03
2022-09-07T06:28:49.657Z,98319.84
2022-09-07T06:31:20.811Z,98320.16
2022-09-07T06:33:49.587Z,98318.38
2022-09-07T06:36:19.750Z,98321.22
2022-09-07T06:38:48.286Z,98313.94
2022-09-07T06:44:07.528Z,98314.63
2022-09-07T06:49:23.868Z,98329.06
2022-09-07T06:51:52.184Z,98331.09
2022-09-07T06:57:09.914Z,98323.91
2022-09-07T06:59:38.665Z,98323.91
2022-09-07T07:02:07.015Z,98314.63
2022-09-07T07:04:40.212Z,98320.47
2022-09-07T07:07:11.670Z,98321.59
2022-09-07T07:09:39.862Z,98322.72
2022-09-07T07:12:09.613Z,98326.22
2022-09-07T07:14:41.066Z,98325.66
2022-09-07T07:17:12.549Z,98323.38
2022-09-07T07:19:40.321Z,98318.59
2022-09-07T07:22:23.942Z,98326.88
2022-09-07T07:24:56.148Z,98321.84
2022-09-07T07:27:25.214Z,98328.19
2022-09-07T07:29:53.872Z,98317.97
2022-09-07T07:32:22.005Z,98324.22
2022-09-07T07:34:50.052Z,98326.47
2022-09-07T07:37:17.781Z,98323.72
2022-09-07T07:42:38.373Z,98313.00
2022-09-07T07:47:55.207Z,98289.59
2022-09-07T07:50:31.732Z,98319.84
2022-09-07T07:55:48.804Z,98313.72
2022-09-07T07:58:18.312Z,98315.50
2022-09-07T08:00:55.635Z,98323.63
2022-09-07T08:03:25.863Z,98319.63
2022-09-07T08:05:53.935Z,98320.31
2022-09-07T08:08:22.942Z,98307.00
2022-09-07T08:10:51.181Z,98320.31
2022-09-07T08:13:21.344Z,98320.50
2022-09-07T08:15:49.293Z,98314.94
2022-09-07T08:18:18.617Z,98318.59
2022-09-07T08:20:46.392Z,98320.41
2022-09-07T08:23:15.188Z,98319.66
2022-09-07T08:25:51.492Z,98320.16
2022-09-07T08:28:21.202Z,98315.19
2022-09-07T08:30:49.357Z,98306.78
2022-09-07T08:33:17.476Z,98315.16
2022-09-07T08:35:55.502Z,98299.94
2022-09-07T08:38:23.656Z,98297.66
2022-09-07T08:40:51.970Z,98288.25
2022-09-07T08:43:47.130Z,98287.56
2022-09-07T08:46:27.633Z,98287.56
2022-09-07T08:48:58.312Z,98286.03
2022-09-07T08:51:37.226Z,98282.53
2022-09-07T08:54:06.971Z,98280.56
2022-09-07T08:56:39.287Z,98280.56
2022-09-07T08:59:19.463Z,98278.19
2022-09-07T09:02:27.024Z,98280.56
2022-09-07T09:05:16.260Z,98269.13
2022-09-07T09:07:31.717Z,98278.19
2022-09-07T09:10:12.932Z,98271.44
2022-09-07T09:12:56.110Z,98270.19
2022-09-07T09:15:35.457Z,98278.50
2022-09-07T09:18:14.512Z,98283.56
2022-09-07T09:20:46.900Z,98268.50
2022-09-07T09:23:17.138Z,98270.00
2022-09-07T09:25:52.849Z,98267.53
2022-09-07T09:28:20.925Z,98279.38
2022-09-07T09:30:50.342Z,98276.25
2022-09-07T09:33:20.887Z,98272.25
2022-09-07T09:35:50.989Z,98274.88
2022-09-07T09:38:31.911Z,98273.25
2022-09-07T09:41:04.124Z,98272.06
2022-09-07T09:43:44.487Z,98267.03
2022-09-07T09:46:23.806Z,98268.59
2022-09-07T09:48:56.846Z,98272.44
2022-09-07T09:54:24.563Z,98271.09
2022-09-07T09:56:53.376Z,98264.19
2022-09-07T10:05:28.520Z,98247.69
2022-09-07T10:07:57.263Z,98253.16
2022-09-07T10:10:27.301Z,98246.31
2022-09-07T10:12:56.332Z,98244.25
2022-09-07T10:15:39.638Z,98255.25
2022-09-07T10:18:19.385Z,98250.78
2022-09-07T10:20:47.289Z,98243.09
2022-09-07T10:23:23.175Z,98253.66
2022-09-07T10:25:51.345Z,98250.63
2022-09-07T10:28:21.151Z,98250.38
2022-09-07T10:31:14.686Z,98247.84
2022-09-07T10:36:45.120Z,98244.38
2022-09-07T10:39:17.136Z,98241.25
2022-09-07T10:41:52.629Z,98246.81
2022-09-07T10:44:34.130Z,98243.19
2022-09-07T10:47:05.985Z,98246.16
2022-09-07T10:50:21.790Z,98242.56
2022-09-07T10:52:42.741Z,98243.69
2022-09-07T10:55:16.806Z,98237.31
2022-09-07T10:57:58.412Z,98239.09
2022-09-07T11:00:31.493Z,98241.97
2022-09-07T11:03:25.343Z,98239.09
2022-09-07T11:06:06.408Z,98240.09
2022-09-07T11:14:28.346Z,98238.88
2022-09-07T11:17:01.114Z,98243.06
2022-09-07T11:19:35.941Z,98240.22
2022-09-07T11:22:18.218Z,98240.31
2022-09-07T11:25:29.065Z,98239.31
2022-09-07T11:27:43.443Z,98241.78
2022-09-07T11:30:19.983Z,98236.63
2022-09-07T11:32:56.369Z,98236.31
2022-09-07T11:35:35.262Z,98240.09
2022-09-07T11:38:14.735Z,98233.53
2022-09-07T11:40:51.205Z,98229.25
2022-09-07T11:43:23.598Z,98230.50
2022-09-07T11:45:55.430Z,98226.06
2022-09-07T11:48:30.721Z,98226.13
2022-09-07T11:51:04.161Z,98220.72
2022-09-07T11:53:37.845Z,98219.16
2022-09-07T11:56:13.127Z,98214.91
2022-09-07T11:58:58.449Z,98221.03
2022-09-07T12:01:39.406Z,98219.50
2022-09-07T12:04:29.625Z,98214.91
2022-09-07T12:07:26.933Z,98217.19
2022-09-07T12:10:23.511Z,98215.84
2022-09-07T12:13:06.099Z,98215.25
2022-09-07T12:15:45.077Z,98211.25
2022-09-07T12:18:27.630Z,98212.22
2022-09-07T12:20:55.993Z,98201.34
2022-09-07T12:23:30.056Z,98200.25
2022-09-07T12:26:35.459Z,98197.09
2022-09-07T12:29:21.474Z,98198.22
2022-09-07T12:32:07.853Z,98196.97
2022-09-07T12:35:01.582Z,98194.44
2022-09-07T12:37:43.343Z,98197.25
2022-09-07T12:40:29.511Z,98203.38
2022-09-07T12:43:31.245Z,98193.84
2022-09-07T12:46:01.716Z,98190.41
2022-09-07T12:48:44.348Z,98188.97
2022-09-07T12:54:20.322Z,98184.78
2022-09-07T13:00:05.087Z,98184.97
2022-09-07T13:02:55.307Z,98178.75
2022-09-07T13:05:41.576Z,98175.88
2022-09-07T13:08:34.664Z,98178.06
2022-09-07T13:11:17.831Z,98165.78
2022-09-07T13:14:06.269Z,98168.47
2022-09-07T13:20:04.277Z,98165.97
2022-09-07T13:23:08.837Z,98158.69
2022-09-07T13:25:46.325Z,98148.00
2022-09-07T13:28:25.383Z,98148.47
2022-09-07T13:31:07.408Z,98156.00
2022-09-07T13:33:48.090Z,98151.31
2022-09-07T13:36:27.129Z,98149.13
2022-09-07T13:38:56.688Z,98150.84
2022-09-07T13:41:38.077Z,98147.00
2022-09-07T13:44:06.545Z,98150.03
2022-09-07T13:46:51.738Z,98144.78
2022-09-07T13:49:35.294Z,98143.56
2022-09-07T13:52:08.317Z,98150.38
2022-09-07T13:54:51.664Z,98138.19
2022-09-07T13:57:27.378Z,98137.88
2022-09-07T13:59:55.987Z,98136.50
2022-09-07T14:02:27.054Z,98127.88
2022-09-07T14:04:57.281Z,98130.84
2022-09-07T14:07:27.882Z,98129.16
2022-09-07T14:10:12.956Z,98136.19
2022-09-07T14:12:46.099Z,98135.28
2022-09-07T14:15:22.897Z,98134.09
2022-09-07T14:18:01.514Z,98132.34
2022-09-07T14:20:29.541Z,98125.63
2022-09-07T14:22:57.645Z,98107.38
2022-09-07T14:25:27.176Z,98130.56
2022-09-07T14:27:56.870Z,98121.00
2022-09-07T14:30:28.974Z,98125.44
2022-09-07T14:33:00.851Z,98126.88
2022-09-07T14:35:34.426Z,98123.91
2022-09-07T14:38:08.267Z,98118.50
2022-09-07T14:40:38.073Z,98114.56
2022-09-07T14:43:27.945Z,98116.41
2022-09-07T14:46:13.142Z,98120.09
2022-09-07T14:48:42.043Z,98113.72
2022-09-07T14:51:29.504Z,98115.69
2022-09-07T14:54:00.805Z,98108.94
2022-09-07T14:56:33.782Z,98114.66
2022-09-07T14:59:01.520Z,98120.00
2022-09-07T15:01:37.895Z,98120.56
2022-09-07T15:04:17.896Z,98108.66
2022-09-07T15:07:02.214Z,98103.41
2022-09-07T15:09:35.897Z,98109.66
2022-09-07T15:12:17.610Z,98109.22
2022-09-07T15:14:45.850Z,98109.84
2022-09-07T15:20:38.679Z,98114.69
2022-09-07T15:23:11.189Z,98111.97
2022-09-07T15:25:40.717Z,98107.00
2022-09-07T15:33:59.913Z,98103.31
2022-09-07T15:36:28.818Z,98099.25
2022-09-07T15:39:04.400Z,98105.06
2022-09-07T15:41:32.713Z,98103.47
2022-09-07T15:44:01.754Z,98107.66
2022-09-07T15:46:29.549Z,98095.66
2022-09-07T15:48:58.276Z,98101.84
2022-09-07T15:54:16.638Z,98095.81
2022-09-07T15:57:48.422Z,98086.75
2022-09-07T15:59:34.867Z,98081.31
2022-09-07T16:02:02.819Z,98081.91
2022-09-07T16:04:31.198Z,98068.16
2022-09-07T16:07:01.709Z,98067.03
2022-09-07T16:09:29.567Z,98068.66
2022-09-07T16:12:59.937Z,98065.72
2022-09-07T16:14:47.249Z,98063.31
2022-09-07T16:20:03.940Z,98061.06
2022-09-07T16:25:20.042Z,98051.16
2022-09-07T16:27:47.984Z,98052.47
2022-09-07T16:30:17.088Z,98045.84
2022-09-07T16:32:45.269Z,98053.44
2022-09-07T16:35:13.161Z,98049.75
2022-09-07T16:38:43.726Z,98048.47
2022-09-07T16:40:29.230Z,98046.63
2022-09-07T16:42:56.932Z,98053.94
2022-09-07T16:48:16.336Z,98056.34
2022-09-07T16:51:00.393Z,98063.81
2022-09-07T16:53:30.046Z,98057.59
2022-09-07T16:56:01.614Z,98059.72
2022-09-07T16:58:38.288Z,98061.91
2022-09-07T17:01:09.360Z,98064.94
2022-09-07T17:03:37.576Z,98066.03
2022-09-07T17:06:07.625Z,98066.84
2022-09-07T17:08:36.905Z,98067.84
2022-09-07T17:11:06.757Z,98062.28
2022-09-07T17:13:35.510Z,98068.34
2022-09-07T17:16:04.136Z,98070.41
2022-09-07T17:21:22.826Z,98080.31
2022-09-07T17:23:55.214Z,98070.97
2022-09-07T17:26:27.044Z,98069.84
2022-09-07T17:29:00.080Z,98076.56
2022-09-07T17:34:20.830Z,98074.97
2022-09-07T17:36:48.810Z,98080.50
2022-09-07T17:39:18.805Z,98070.50
2022-09-07T17:41:47.714Z,98077.59
2022-09-07T17:44:16.576Z,98075.38
2022-09-07T17:46:44.790Z,98087.19
2022-09-07T17:49:14.351Z,98080.84
2022-09-07T17:51:43.990Z,98080.47
2022-09-07T17:54:13.763Z,98094.50
2022-09-07T17:56:42.404Z,98081.03
2022-09-07T18:01:59.653Z,98073.25
2022-09-07T18:04:28.529Z,98070.50
2022-09-07T18:06:57.917Z,98071.78
2022-09-07T18:09:25.725Z,98068.72
2022-09-07T18:11:53.838Z,98068.78
2022-09-07T18:14:21.577Z,98074.72
2022-09-07T18:16:51.094Z,98080.63
2022-09-07T18:19:19.805Z,98074.25
2022-09-07T18:21:48.641Z,98080.59
2022-09-07T18:24:21.005Z,98077.94
2022-09-07T18:26:52.089Z,98077.63
2022-09-07T18:29:37.523Z,98076.41
2022-09-07T18:32:08.925Z,98072.53
2022-09-07T18:34:41.143Z,98072.56
2022-09-07T18:37:12.046Z,98065.81
2022-09-07T18:39:41.618Z,98076.84
2022-09-07T18:42:10.025Z,98072.94
2022-09-07T18:47:28.863Z,98067.06
2022-09-07T18:49:58.964Z,98072.63
2022-09-07T18:55:17.153Z,98074.63
2022-09-07T18:57:45.339Z,98073.84
2022-09-07T19:00:14.047Z,98070.72
2022-09-07T19:02:42.255Z,98055.78
2022-09-07T19:08:03.135Z,98068.00
2022-09-07T19:10:35.041Z,98060.13
2022-09-07T19:13:03.842Z,98054.22
2022-09-07T19:15:37.129Z,98063.66
2022-09-07T19:18:08.293Z,98052.63
2022-09-07T19:20:37.025Z,98053.81
2022-09-07T19:23:05.151Z,98040.84
2022-09-07T19:25:34.702Z,98045.56
2022-09-07T19:28:02.502Z,98048.75
2022-09-07T19:30:30.422Z,98045.97
2022-09-07T19:33:03.364Z,98046.34
2022-09-07T19:35:36.059Z,98042.41
2022-09-07T19:38:04.672Z,98043.22
2022-09-07T19:40:33.913Z,98043.22
2022-09-07T19:43:01.840Z,98044.03
2022-09-07T19:45:30.202Z,98051.09
2022-09-07T19:47:58.054Z,98048.72
2022-09-07T19:50:25.956Z,98041.63
2022-09-07T19:52:54.084Z,98050.31
2022-09-07T19:55:21.785Z,98052.28
2022-09-07T19:57:51.994Z,98047.91
2022-09-07T20:00:20.277Z,98045.94
2022-09-07T20:02:49.162Z,98046.31
2022-09-07T20:05:17.633Z,98049.81
2022-09-07T20:07:45.893Z,98045.47
2022-09-07T20:10:13.749Z,98046.28
2022-09-07T20:12:41.689Z,98040.34
2022-09-07T20:15:11.602Z,98039.94
2022-09-07T20:17:39.444Z,98041.50
2022-09-07T20:20:08.271Z,98045.44
2022-09-07T20:22:36.301Z,98043.84
2022-09-07T20:25:04.413Z,98046.59
2022-09-07T20:27:35.659Z,98047.78
2022-09-07T20:30:04.144Z,98043.06
2022-09-07T20:32:33.229Z,98037.56
2022-09-07T20:35:01.419Z,98032.03
2022-09-07T20:37:29.482Z,98025.31
2022-09-07T20:39:57.260Z,98032.72
2022-09-07T20:42:25.021Z,98031.91
2022-09-07T20:44:53.508Z,98032.69
2022-09-07T20:47:21.283Z,98036.25
2022-09-07T20:49:52.150Z,98032.31
2022-09-07T20:52:20.421Z,98028.72
2022-09-07T20:54:48.129Z,98035.44
2022-09-07T20:57:15.863Z,98035.41
2022-09-07T20:59:43.983Z,98036.56
2022-09-07T21:02:11.726Z,98031.78
2022-09-07T21:04:39.931Z,98036.47
2022-09-07T21:07:09.665Z,98041.16
2022-09-07T21:09:37.344Z,98045.84
2022-09-07T21:12:05.277Z,98034.84
2022-09-07T21:14:33.281Z,98039.53
2022-09-07T21:17:01.080Z,98042.28
2022-09-07T21:19:28.842Z,98047.38
2022-09-07T21:21:57.063Z,98041.84
2022-09-07T21:24:26.421Z,98041.50
2022-09-07T21:26:54.222Z,98024.47
2022-09-07T21:29:24.341Z,98033.19
2022-09-07T21:31:54.236Z,98035.47
2022-09-07T21:34:22.521Z,98040.06
2022-09-07T21:36:50.570Z,98030.50
2022-09-07T21:39:19.180Z,98032.44
2022-09-07T21:41:48.378Z,98031.19
2022-09-07T21:44:17.298Z,98032.72
2022-09-07T21:46:45.519Z,98040.50
2022-09-07T21:49:13.776Z,98033.81
2022-09-07T21:51:42.088Z,98031.41
2022-09-07T21:54:10.572Z,98027.00
2022-09-07T21:56:41.014Z,98012.88
2022-09-07T21:59:12.828Z,98016.72
2022-09-07T22:01:41.154Z,98027.53
2022-09-07T22:04:09.061Z,98022.78
2022-09-07T22:06:37.620Z,98015.28
2022-09-07T22:09:05.932Z,98025.53
2022-09-07T22:11:33.809Z,98020.81
2022-09-07T22:14:04.411Z,98021.84
2022-09-07T22:16:35.198Z,98017.78
2022-09-07T22:19:03.453Z,98013.31
2022-09-07T22:21:32.050Z,98014.28
2022-09-07T22:24:02.061Z,98014.94
2022-09-07T22:26:32.480Z,98008.59
2022-09-07T22:29:01.074Z,98008.91
2022-09-07T22:31:31.700Z,98002.22
2022-09-07T22:34:55.510Z,98012.41
2022-09-07T22:37:24.791Z,98008.09
2022-09-07T22:39:53.766Z,98005.75
2022-09-07T22:42:21.424Z,98005.03
2022-09-07T22:44:49.088Z,98001.44
2022-09-07T22:47:17.093Z,97991.97
2022-09-07T22:49:44.768Z,97991.97
2022-09-07T22:52:12.622Z,97990.38
2022-09-07T22:54:41.917Z,97991.16
2022-09-07T22:57:09.969Z,97992.38
2022-09-07T22:59:37.850Z,97988.03
2022-09-07T23:02:05.868Z,97997.84
2022-09-07T23:04:33.657Z,97987.22
2022-09-07T23:07:01.499Z,97997.44
2022-09-07T23:09:29.721Z,97992.38
2022-09-07T23:11:58.706Z,97988.91
2022-09-07T23:14:26.526Z,97988.09
2022-09-07T23:16:54.670Z,97989.34
2022-09-07T23:19:22.424Z,97975.59
2022-09-07T23:21:50.109Z,97969.97
2022-09-07T23:24:19.311Z,97963.91
2022-09-07T23:26:47.554Z,97971.69
2022-09-07T23:29:16.942Z,97966.16
2022-09-07T23:31:46.407Z,97965.28
2022-09-07T23:34:14.164Z,97961.78
2022-09-07T23:36:41.944Z,97961.78
2022-09-07T23:39:10.521Z,97957.81
2022-09-07T23:41:38.169Z,97963.81
2022-09-07T23:44:06.151Z,97965.19
2022-09-07T23:46:36.042Z,97963.72
2022-09-07T23:49:03.948Z,97959.13
2022-09-07T23:51:31.631Z,97953.91
2022-09-07T23:53:59.752Z,97952.56
2022-09-07T23:56:27.992Z,97952.56
2022-09-07T23:58:55.663Z,97956.03
